Flight Track Log - Related Links

Times and Time Zones

All times are in EDT time to prevent confusion due to time zone crossing. See the SWA34 flight status page for this flight to view local times or setup timezone preferences in your user account.

Time Position Orientation Groundspeed Altitude Reporting Facility
EDT Latitude Longitude Course Direction KTS MPH feet Rate Location/Type
Fri 06:56:24 PM 36.2000 -95.7981 89° East 208 239 3,400  Level Kansas City Center
Fri 06:57:13 PM 36.2075 -95.7414 81° East 231 266 4,900 2,236 Climbing Kansas City Center
Fri 06:58:14 PM 36.2481 -95.6503 61° Northeast 280 322 7,500 2,926 Climbing Kansas City Center
Fri 06:59:14 PM 36.2931 -95.5572 59° Northeast 302 348 10,800 2,855 Climbing Kansas City Center
Fri 07:00:18 PM 36.3561 -95.4333 58° Northeast 350 403 13,400 2,640 Climbing Kansas City Center
Fri 07:01:19 PM 36.4139 -95.3131 59° Northeast 388 447 16,300 2,565 Climbing Kansas City Center
Fri 07:02:22 PM 36.4725 -95.1931 59° Northeast 403 464 18,700 2,274 Climbing Kansas City Center
Fri 07:03:23 PM 36.5286 -95.0786 59° Northeast 414 476 21,000 2,226 Climbing Kansas City Center
Fri 07:04:26 PM 36.6039 -94.9228 59° Northeast 427 491 23,300 2,081 Climbing Kansas City Center
Fri 07:05:27 PM 36.6714 -94.7861 58° Northeast 445 512 25,300 2,032 Climbing Kansas City Center
Fri 07:06:30 PM 36.7481 -94.6597 53° Northeast 454 522 27,500 1,680 Climbing Kansas City Center
Fri 07:07:32 PM 36.8272 -94.5317 52° Northeast 459 528 28,800 1,317 Climbing Kansas City Center
Fri 07:08:33 PM 36.9072 -94.3989 53° Northeast 469 540 30,200 1,258 Climbing Kansas City Center
Fri 07:09:36 PM 36.9886 -94.2639 53° Northeast 482 555 31,400 1,415 Climbing Kansas City Center
Fri 07:10:36 PM 37.0703 -94.1244 54° Northeast 494 568 33,100 1,686 Climbing Kansas City Center
Fri 07:11:37 PM 37.1519 -93.9892 53° Northeast 484 557 34,800 912 Climbing Kansas City Center
Fri 07:12:41 PM 37.2486 -93.8264 53° Northeast 483 556 35,000 96 Climbing Kansas City Center
Fri 07:13:42 PM 37.3269 -93.6853 55° Northeast 491 565 35,000  Level Kansas City Center
Fri 07:14:43 PM 37.3922 -93.5308 62° Northeast 497 572 35,000  Level Kansas City Center
Fri 07:15:47 PM 37.4608 -93.3819 60° Northeast 493 567 35,000  Level Kansas City Center
Fri 07:16:47 PM 37.5356 -93.2417 56° Northeast 484 557 35,000  Level Kansas City Center
Fri 07:17:48 PM 37.6250 -93.1156 48° Northeast 481 554 35,000  Level Kansas City Center
Fri 07:18:52 PM 37.7136 -92.9833 50° Northeast 489 563 35,000  Level Kansas City Center
Fri 07:19:52 PM 37.8014 -92.8508 50° Northeast 490 564 35,000 -435 Level Kansas City Center
Fri 07:20:56 PM 37.8958 -92.7083 50° Northeast 488 562 34,100 -871 Descending Kansas City Center
Fri 07:21:56 PM 37.9736 -92.5678 55° Northeast 487 560 33,200 -942 Descending Kansas City Center
Fri 07:22:57 PM 38.0508 -92.4256 55° Northeast 490 564 32,200 -1,440 Descending Kansas City Center
Fri 07:24:01 PM 38.1281 -92.2789 56° Northeast 496 571 30,200 -2,516 Descending Kansas City Center
Fri 07:25:01 PM 38.2239 -92.1019 55° Northeast 497 572 27,000 -2,430 Descending Kansas City Center
Fri 07:26:02 PM 38.2975 -91.9603 56° Northeast 484 557 25,300 -1,355 Descending Kansas City Center
Fri 07:27:05 PM 38.3575 -91.8308 59° Northeast 437 503 24,200 -1,968 Descending Kansas City Center
Fri 07:28:07 PM 38.4178 -91.7014 59° Northeast 424 488 21,200 -2,323 Descending Kansas City Center
Fri 07:29:09 PM 38.4792 -91.5706 59° Northeast 426 490 19,400 -1,820 Descending Kansas City Center
Fri 07:30:09 PM 38.5369 -91.4458 59° Northeast 412 474 17,500 -2,430 Descending Kansas City Center
Fri 07:31:10 PM 38.5931 -91.3247 59° Northeast 416 479 14,500 -2,274 Descending Kansas City Center
Fri 07:32:13 PM 38.6508 -91.1994 59° Northeast 413 475 12,800 -1,355 Descending Kansas City Center
Fri 07:33:14 PM 38.6986 -91.0764 64° Northeast 329 379 11,700 -1,694 Descending Kansas City Center
Fri 07:34:17 PM 38.7264 -90.9797 70° East 298 343 9,300 -1,887 Descending Kansas City Center
Fri 07:35:18 PM 38.7567 -90.8803 69° East 298 343 7,800 -1,268 Descending Kansas City Center
Fri 07:36:20 PM 38.7817 -90.7925 70° East 265 305 6,700 -1,065 Descending Kansas City Center
Fri 07:37:22 PM 38.8058 -90.7142 68° East 242 278 5,600 -1,082 Descending Kansas City Center
Fri 07:38:22 PM 38.8275 -90.6378 70° East 231 266 4,500 -1,131 Descending Kansas City Center
Fri 07:39:24 PM 38.8439 -90.5619 74° East 225 259 3,300 -1,033 Descending Kansas City Center
Fri 07:40:24 PM 38.8142 -90.5017 122° Southeast 210 242 2,400 -677 Descending Kansas City Center
Fri 07:41:28 PM 38.7886 -90.4497 122° Southeast 190 219 1,900 -619 Descending Kansas City Center
Fri 07:42:30 PM 38.7647 -90.4011 122° Southeast 148 170 1,100 -634 Descending Kansas City Center
Fri 07:43:31 PM 38.7483 -90.3656 121° Southeast 139 160 600 -492 Descending Kansas City Center
Fri 07:45:00 PM 38.7487 -90.3700 270° West  Level Estimated

Login

Don't have an account? Register now (free) for customized features, flight alerts, and more!